EDT,Max TemperatureF,Mean TemperatureF,Min TemperatureF,Max Dew PointF,MeanDew PointF,Min DewpointF,Max Humidity, Mean Humidity, Min Humidity, Max Sea Level PressureIn, Mean Sea Level PressureIn, Min Sea Level PressureIn, Max VisibilityMiles, Mean VisibilityMiles, Min VisibilityMiles, Max Wind SpeedMPH, Mean Wind SpeedMPH, Max Gust SpeedMPH,PrecipitationIn, CloudCover, Events, WindDirDegrees
2013-6-1,68,60,53,64,59,50,96,89,81,29.77,29.68,29.63,10,9,1,15,7,24,0.18,5,Rain,193
2013-6-2,59,50,42,57,44,35,96,83,65,30.00,29.79,29.59,10,9,0,17,9,24,0.01,7,Rain,292
2013-6-3,57,49,41,45,37,30,81,64,43,30.10,30.02,29.99,10,10,10,20,11,28,0.00,1,,290
2013-6-4,59,50,42,42,36,30,79,56,37,30.22,30.19,30.11,10,10,10,9,6,,0.00,0,,272
2013-6-5,53,50,48,44,41,30,80,70,41,30.23,30.19,30.13,10,10,10,16,7,24,0.00,7,,86
2013-6-6,64,56,49,45,39,32,85,54,30,30.13,30.05,29.99,10,10,10,13,8,21,0.00,6,Rain,81
2013-6-7,70,58,45,43,38,31,71,48,25,30.00,29.96,29.90,10,10,10,10,6,,0.00,0,,65
2013-6-8,65,56,48,48,43,35,79,59,40,30.07,29.98,29.92,10,10,10,10,4,,0.00,1,,260
2013-6-9,67,58,49,50,46,38,83,66,36,30.14,30.09,30.04,10,10,10,16,7,26,0.00,0,,125
2013-6-10,64,58,51,59,51,46,96,82,72,30.04,29.91,29.84,10,9,1,17,11,26,0.00,6,,90
2013-6-11,68,62,55,62,60,54,97,92,79,29.88,29.85,29.82,10,6,0,7,3,,0.03,7,Fog-Rain,134
2013-6-12,75,64,53,61,53,47,97,74,39,29.91,29.86,29.77,10,6,0,7,2,,0.00,4,Fog,279
2013-6-13,73,62,52,56,51,45,84,65,47,30.02,29.87,29.75,10,10,7,15,9,23,0.00,1,,356
2013-6-14,68,58,49,45,38,24,79,49,19,30.15,30.08,30.03,10,10,10,13,7,16,0.00,0,,356
2013-6-15,71,58,46,53,43,25,90,59,22,30.04,29.96,29.84,10,10,4,9,2,18,0.07,4,Rain,229
2013-6-16,68,62,55,61,57,53,97,88,68,29.85,29.78,29.75,10,6,0,18,6,30,0.42,6,Fog-Rain,253
2013-6-17,61,56,51,55,51,47,96,84,68,30.04,29.94,29.82,10,9,2,13,5,17,0.00,5,,42
2013-6-18,66,56,45,46,41,34,93,58,31,30.14,30.10,30.03,10,10,10,13,6,17,0.00,0,,46
2013-6-19,69,58,47,48,43,38,89,57,33,30.19,30.14,30.11,10,10,10,13,6,,0.00,0,,251
2013-6-20,72,64,56,53,46,40,81,54,34,30.17,30.14,30.10,10,10,10,14,8,21,0.00,3,,204
2013-6-21,65,61,57,61,55,52,94,83,64,30.17,30.07,29.93,10,9,1,18,7,30,0.09,6,Rain,96
2013-6-22,70,64,58,64,60,57,97,91,77,30.08,30.02,29.94,10,5,0,10,6,16,0.00,7,Fog,236
2013-6-23,79,68,56,66,61,56,97,88,59,30.03,29.95,29.85,10,6,0,12,6,17,0.00,4,Fog,139
2013-6-24,74,68,61,67,64,60,94,85,76,29.98,29.91,29.86,10,9,4,15,8,22,0.00,2,,250
2013-6-25,70,66,61,66,63,61,96,89,82,29.87,29.84,29.82,10,8,0,16,8,23,0.86,4,Fog-Rain,242
2013-6-26,83,72,61,66,62,56,96,74,45,29.83,29.80,29.75,10,9,4,10,5,,0.00,0,,245
2013-6-27,70,66,61,66,64,60,95,90,79,29.78,29.73,29.67,10,9,4,15,6,23,0.01,5,Rain,121
2013-6-28,72,66,59,64,62,58,96,87,71,29.68,29.63,29.61,10,9,3,12,3,16,0.20,6,Rain,59
2013-6-29,76,68,60,62,58,53,94,73,51,29.81,29.70,29.64,10,10,7,10,7,,0.00,4,Rain,5
2013-6-30,77,66,56,54,46,39,85,49,28,30.05,29.95,29.82,10,10,10,13,8,17,0.00,1,,4